createdAt,value
2022-12-07T00:00:41.466Z,7.60
2022-12-07T00:05:43.227Z,8.23
2022-12-07T00:10:44.971Z,7.57
2022-12-07T00:15:46.797Z,7.82
2022-12-07T00:20:48.536Z,7.57
2022-12-07T00:25:50.257Z,9.20
2022-12-07T00:30:52.026Z,7.68
2022-12-07T00:35:58.678Z,8.57
2022-12-07T00:41:02.558Z,8.63
2022-12-07T00:46:04.618Z,8.27
2022-12-07T00:51:07.086Z,9.05
2022-12-07T00:56:12.198Z,8.98
2022-12-07T01:01:13.973Z,9.00
2022-12-07T01:06:17.461Z,10.18
2022-12-07T01:11:22.404Z,8.65
2022-12-07T01:16:26.226Z,8.73
2022-12-07T01:21:31.087Z,10.57
2022-12-07T01:26:33.179Z,9.77
2022-12-07T01:31:35.383Z,9.95
2022-12-07T01:36:38.239Z,11.05
2022-12-07T01:41:43.728Z,10.15
2022-12-07T01:47:06.013Z,8.10
2022-12-07T01:52:28.832Z,7.32
2022-12-07T01:57:33.396Z,8.57
2022-12-07T02:02:42.669Z,9.25
2022-12-07T02:07:46.442Z,9.95
2022-12-07T02:12:56.686Z,9.60
2022-12-07T02:18:15.625Z,11.48
2022-12-07T02:23:32.115Z,10.55
2022-12-07T02:29:07.807Z,11.70
2022-12-07T02:34:19.850Z,11.05
2022-12-07T02:39:47.933Z,10.40
2022-12-07T02:44:50.202Z,10.75
2022-12-07T02:49:53.135Z,11.48
2022-12-07T02:54:54.909Z,10.52
2022-12-07T03:00:09.961Z,10.10
2022-12-07T03:05:14.885Z,11.55
2022-12-07T03:10:29.734Z,10.85
2022-12-07T03:15:46.379Z,12.85
2022-12-07T03:20:50.834Z,11.55
2022-12-07T03:26:00.768Z,12.70
2022-12-07T03:31:13.201Z,11.50
2022-12-07T03:36:46.146Z,11.45
2022-12-07T03:41:47.933Z,12.55
2022-12-07T03:47:13.272Z,11.20
2022-12-07T03:52:29.362Z,11.48
2022-12-07T03:57:33.001Z,11.25
2022-12-07T04:02:36.359Z,11.03
2022-12-07T04:07:38.188Z,11.98
2022-12-07T04:12:40.092Z,12.30
2022-12-07T04:17:42.344Z,11.85
2022-12-07T04:22:44.211Z,11.85
2022-12-07T04:27:45.969Z,12.27
2022-12-07T04:32:47.731Z,12.50
2022-12-07T04:37:49.449Z,12.82
2022-12-07T04:42:51.199Z,13.52
2022-12-07T04:47:52.961Z,13.30
2022-12-07T04:52:54.738Z,13.55
2022-12-07T04:57:56.569Z,13.32
2022-12-07T05:02:58.316Z,13.30
2022-12-07T05:08:00.124Z,14.57
2022-12-07T05:13:01.964Z,14.57
2022-12-07T05:18:04.400Z,13.35
2022-12-07T05:23:06.140Z,15.13
2022-12-07T05:28:07.909Z,14.63
2022-12-07T05:33:09.711Z,14.93
2022-12-07T05:38:11.478Z,14.38
2022-12-07T05:43:13.368Z,14.48
2022-12-07T05:48:15.111Z,15.38
2022-12-07T05:53:22.689Z,11.93
2022-12-07T05:58:43.585Z,11.73
2022-12-07T06:03:46.410Z,11.07
2022-12-07T06:08:48.211Z,11.05
2022-12-07T06:13:49.991Z,10.07
2022-12-07T06:18:51.781Z,9.95
2022-12-07T06:23:53.709Z,9.10
2022-12-07T06:28:55.552Z,8.38
2022-12-07T06:34:11.987Z,9.35
2022-12-07T06:39:13.780Z,9.60
2022-12-07T06:44:15.589Z,9.75
2022-12-07T06:49:17.411Z,10.02
2022-12-07T06:54:19.203Z,9.70
2022-12-07T06:59:21.077Z,9.07
2022-12-07T07:04:22.855Z,9.75
2022-12-07T07:09:24.665Z,9.20
2022-12-07T07:14:26.450Z,10.00
2022-12-07T07:19:28.190Z,10.13
2022-12-07T07:24:30.058Z,9.75
2022-12-07T07:29:31.808Z,10.77
2022-12-07T07:34:33.734Z,11.38
2022-12-07T07:39:35.452Z,11.52
2022-12-07T07:44:37.180Z,10.80
2022-12-07T07:49:43.130Z,11.30
2022-12-07T07:54:48.621Z,11.52
2022-12-07T07:59:50.658Z,10.40
2022-12-07T08:04:52.525Z,11.25
2022-12-07T08:09:54.441Z,12.20
2022-12-07T08:14:56.193Z,12.02
2022-12-07T08:19:57.952Z,11.73
2022-12-07T08:24:59.679Z,11.20
2022-12-07T08:30:01.895Z,10.60
2022-12-07T08:35:04.114Z,10.57
2022-12-07T08:40:07.386Z,11.07
2022-12-07T08:45:12.095Z,11.75
2022-12-07T08:50:14.602Z,11.32
2022-12-07T08:55:16.353Z,11.10
2022-12-07T09:00:18.378Z,11.50
2022-12-07T09:05:20.511Z,11.63
2022-12-07T09:10:22.369Z,11.93
2022-12-07T09:15:24.131Z,12.23
2022-12-07T09:20:28.003Z,11.40
2022-12-07T09:25:30.218Z,11.25
2022-12-07T09:30:31.983Z,11.60
2022-12-07T09:35:33.733Z,12.23
2022-12-07T09:40:35.571Z,12.70
2022-12-07T09:45:38.048Z,12.93
2022-12-07T09:50:41.007Z,12.70
2022-12-07T09:55:44.549Z,12.75
2022-12-07T10:00:46.484Z,12.82
2022-12-07T10:05:51.508Z,12.23
2022-12-07T10:10:56.729Z,12.23
2022-12-07T10:16:05.192Z,12.77
2022-12-07T10:21:25.015Z,11.65
2022-12-07T10:26:31.803Z,11.30
2022-12-07T10:31:33.693Z,11.38
2022-12-07T10:36:37.565Z,13.25
2022-12-07T10:41:59.711Z,10.63
2022-12-07T10:47:28.169Z,10.45
2022-12-07T10:52:56.173Z,10.07
2022-12-07T10:58:07.354Z,9.10
2022-12-07T11:03:29.429Z,10.40
2022-12-07T11:08:45.617Z,10.40
2022-12-07T11:13:56.717Z,10.07
2022-12-07T11:19:16.052Z,10.32
2022-12-07T11:24:20.785Z,10.60
2022-12-07T11:29:47.541Z,11.55
2022-12-07T11:35:07.918Z,11.40
2022-12-07T11:40:28.582Z,9.55
2022-12-07T11:45:34.100Z,9.88
2022-12-07T11:50:58.136Z,9.57
2022-12-07T11:56:12.235Z,9.10
2022-12-07T12:01:28.284Z,9.20
2022-12-07T12:06:30.413Z,8.88
2022-12-07T12:11:41.063Z,8.73
2022-12-07T12:17:04.525Z,7.93
2022-12-07T12:22:19.566Z,8.63
2022-12-07T12:27:46.756Z,8.18
2022-12-07T12:32:48.634Z,7.80
2022-12-07T12:37:53.707Z,7.45
2022-12-07T12:42:56.954Z,8.07
2022-12-07T12:48:05.722Z,7.22
2022-12-07T12:53:26.107Z,7.18
2022-12-07T12:58:37.612Z,6.20
2022-12-07T13:03:39.567Z,6.78
2022-12-07T13:08:42.842Z,7.97
2022-12-07T13:13:44.659Z,5.60
2022-12-07T13:18:46.438Z,6.55
2022-12-07T13:23:50.992Z,6.35
2022-12-07T13:33:56.046Z,5.53
2022-12-07T13:38:59.882Z,5.50
2022-12-07T13:44:14.716Z,6.10
2022-12-07T13:49:24.054Z,5.90
2022-12-07T13:54:25.845Z,5.32
2022-12-07T13:59:28.446Z,6.00
2022-12-07T14:04:38.340Z,5.53
2022-12-07T14:09:40.091Z,4.85
2022-12-07T14:14:48.604Z,4.40
2022-12-07T14:19:57.731Z,4.53
2022-12-07T14:25:14.835Z,4.90
2022-12-07T14:30:18.599Z,4.30
2022-12-07T14:35:20.558Z,4.43
2022-12-07T14:40:24.937Z,5.35
2022-12-07T14:45:26.718Z,5.10
2022-12-07T14:50:28.635Z,5.53
2022-12-07T14:55:32.665Z,6.00
2022-12-07T15:00:35.200Z,6.75
2022-12-07T15:05:37.865Z,5.68
2022-12-07T15:10:41.041Z,4.68
2022-12-07T15:15:42.943Z,4.30
2022-12-07T15:20:45.124Z,4.07
2022-12-07T15:25:49.117Z,3.90
2022-12-07T15:30:50.922Z,4.65
2022-12-07T15:35:52.818Z,3.95
2022-12-07T15:40:54.574Z,4.85
2022-12-07T15:45:56.394Z,4.68
2022-12-07T15:51:06.623Z,5.35
2022-12-07T15:56:09.232Z,4.30
2022-12-07T16:01:12.988Z,4.88
2022-12-07T16:06:18.079Z,5.90
2022-12-07T16:11:19.959Z,6.25
2022-12-07T16:16:23.392Z,6.70
2022-12-07T16:21:25.900Z,6.47
2022-12-07T16:26:27.791Z,7.18
2022-12-07T16:31:30.063Z,7.00
2022-12-07T16:37:02.708Z,8.52
2022-12-07T16:41:54.392Z,9.48
2022-12-07T16:46:56.261Z,6.82
2022-12-07T16:52:18.797Z,6.82
2022-12-07T16:57:23.390Z,7.85
2022-12-07T17:02:25.727Z,9.50
2022-12-07T17:07:27.643Z,8.70
2022-12-07T17:12:29.464Z,7.47
2022-12-07T17:17:31.768Z,9.27
2022-12-07T17:22:33.560Z,11.07
2022-12-07T17:27:35.544Z,10.65
2022-12-07T17:32:37.635Z,11.05
2022-12-07T17:37:39.385Z,13.65
2022-12-07T17:42:41.452Z,16.50
2022-12-07T17:47:43.504Z,16.25
2022-12-07T17:58:27.554Z,13.18
2022-12-07T18:03:29.405Z,13.25
2022-12-07T18:08:36.386Z,12.40
2022-12-07T18:13:38.274Z,11.68
2022-12-07T18:18:41.142Z,10.30
2022-12-07T18:23:44.826Z,9.55
2022-12-07T18:28:47.182Z,7.33
2022-12-07T18:33:49.143Z,6.28
2022-12-07T18:38:51.910Z,7.72
2022-12-07T18:43:53.633Z,7.28
2022-12-07T18:48:57.170Z,7.10
2022-12-07T18:54:00.316Z,8.05
2022-12-07T18:59:22.610Z,7.88
2022-12-07T19:04:24.341Z,8.43
2022-12-07T19:09:26.086Z,9.00
2022-12-07T19:14:36.613Z,9.40
2022-12-07T19:19:41.483Z,11.52
2022-12-07T19:24:46.466Z,12.48
2022-12-07T19:29:48.982Z,14.93
2022-12-07T19:34:51.556Z,14.60
2022-12-07T19:39:53.394Z,16.73
2022-12-07T19:44:55.094Z,15.73
2022-12-07T19:49:56.858Z,16.17
2022-12-07T19:54:58.703Z,17.35
2022-12-07T20:00:00.489Z,15.55
2022-12-07T20:05:06.215Z,17.10
2022-12-07T20:10:08.804Z,16.90
2022-12-07T20:15:10.677Z,16.98
2022-12-07T20:20:12.690Z,17.20
2022-12-07T20:25:17.437Z,18.52
2022-12-07T20:30:19.268Z,19.15
2022-12-07T20:35:20.998Z,19.92
2022-12-07T20:40:22.854Z,18.90
2022-12-07T20:45:24.559Z,19.42
2022-12-07T20:50:26.298Z,18.65
2022-12-07T20:55:28.046Z,22.00
2022-12-07T21:00:29.830Z,19.98
2022-12-07T21:05:31.563Z,18.85
2022-12-07T21:10:33.255Z,19.73
2022-12-07T21:15:35.144Z,19.77
2022-12-07T21:20:36.933Z,20.67
2022-12-07T21:25:38.690Z,20.75
2022-12-07T21:31:11.074Z,20.02
2022-12-07T21:36:07.517Z,20.42
2022-12-07T21:41:21.273Z,19.88
2022-12-07T21:46:29.618Z,20.60
2022-12-07T21:51:33.873Z,21.38
2022-12-07T21:56:38.428Z,22.00
2022-12-07T22:06:43.244Z,22.35
2022-12-07T22:11:45.718Z,22.15
2022-12-07T22:16:47.524Z,23.02
2022-12-07T22:21:49.259Z,23.13
2022-12-07T22:26:51.019Z,21.38
2022-12-07T22:31:54.299Z,22.42
2022-12-07T22:36:56.305Z,22.40
2022-12-07T22:41:58.042Z,22.85
2022-12-07T22:46:59.822Z,22.60
2022-12-07T22:52:01.538Z,22.42
2022-12-07T22:57:03.710Z,20.60
2022-12-07T23:02:05.420Z,21.48
2022-12-07T23:07:07.184Z,21.95
2022-12-07T23:12:28.514Z,21.73
2022-12-07T23:17:30.268Z,21.77
2022-12-07T23:22:32.063Z,21.45
2022-12-07T23:27:34.696Z,22.00
2022-12-07T23:32:36.731Z,20.48
2022-12-07T23:37:38.421Z,20.92
2022-12-07T23:42:40.131Z,21.35
2022-12-07T23:47:41.849Z,22.00
2022-12-07T23:52:43.557Z,22.52
2022-12-07T23:57:45.471Z,21.95
